Time;durP1;ratioP1;P1;durP2;ratioP2;P2;SDS_P1;SDS_P2;PMS_P1;PMS_P2;Temp;Humidity;BMP_temperature;BMP_pressure;BME280_temperature;BME280_humidity;BME280_pressure;Samples;Min_cycle;Max_cycle;Signal;HPM_P1;HPM_P2
2023/10/31 00:01:22;;;;;;;23.80;11.53;;;;;;;12.20;100.00;98978.39;5086772;56;1143054;-70
2023/10/31 00:06:28;;;;;;;20.45;11.70;;;;;;;12.21;100.00;98976.08;5075110;56;1143172;-73
2023/10/31 00:11:33;;;;;;;20.73;11.37;;;;;;;12.23;100.00;98962.13;5055239;56;1143350;-74
2023/10/31 00:16:39;;;;;;;17.03;10.53;;;;;;;12.26;100.00;98955.17;5054640;57;1143071;-77
2023/10/31 00:21:44;;;;;;;22.23;11.50;;;;;;;12.26;100.00;98952.52;5130659;56;1143024;-74
2023/10/31 00:26:50;;;;;;;21.10;11.03;;;;;;;12.26;100.00;98936.13;5118402;56;1142971;-76
2023/10/31 00:31:56;;;;;;;21.03;10.43;;;;;;;12.29;100.00;98930.48;5119273;56;1142681;-76
2023/10/31 00:37:01;;;;;;;20.40;11.20;;;;;;;12.30;100.00;98919.39;5119046;56;1142943;-76
2023/10/31 00:42:08;;;;;;;20.20;11.23;;;;;;;12.30;100.00;98908.78;5103430;56;1142982;-72
2023/10/31 00:47:15;;;;;;;22.07;11.27;;;;;;;12.30;100.00;98884.43;5055234;57;1143129;-73
2023/10/31 00:52:20;;;;;;;21.00;9.97;;;;;;;12.32;100.00;98869.19;5055123;57;1143088;-71
2023/10/31 00:57:27;;;;;;;19.35;10.45;;;;;;;12.37;100.00;98864.70;5075315;57;1140765;-72
2023/10/31 01:02:33;;;;;;;23.73;10.60;;;;;;;12.38;100.00;98866.33;5060133;56;1143045;-75
2023/10/31 01:07:39;;;;;;;20.40;10.23;;;;;;;12.40;100.00;98841.80;5107201;56;1142966;-73
2023/10/31 01:12:44;;;;;;;28.63;10.43;;;;;;;12.43;100.00;98828.21;5051334;57;1143050;-73
2023/10/31 01:17:50;;;;;;;21.60;9.80;;;;;;;12.44;100.00;98819.27;5031462;56;1143253;-70
2023/10/31 01:22:56;;;;;;;17.20;8.77;;;;;;;12.48;100.00;98811.30;5035878;57;1140814;-75
2023/10/31 01:28:01;;;;;;;18.12;9.10;;;;;;;12.50;100.00;98805.83;5036034;57;1141087;-76
2023/10/31 01:33:07;;;;;;;18.67;8.80;;;;;;;12.53;100.00;98801.47;5056021;57;1140716;-76
2023/10/31 01:38:13;;;;;;;12.87;8.27;;;;;;;12.54;100.00;98793.84;5035126;56;1140980;-77
2023/10/31 01:43:39;;;;;;;20.08;8.95;;;;;;;12.56;100.00;98775.44;5050819;56;1141102;-72
2023/10/31 01:48:47;;;;;;;16.50;8.07;;;;;;;12.58;100.00;98758.03;5055426;57;1141102;-73
2023/10/31 01:53:53;;;;;;;13.93;9.03;;;;;;;12.60;100.00;98733.00;5035948;57;1141039;-74
2023/10/31 01:58:58;;;;;;;13.65;9.35;;;;;;;12.63;100.00;98720.72;5102764;56;1141372;-77
2023/10/31 02:04:05;;;;;;;15.57;9.03;;;;;;;12.65;100.00;98717.89;5140298;56;1140922;-76
2023/10/31 02:09:10;;;;;;;15.65;8.80;;;;;;;12.69;100.00;98699.27;5143187;56;1141341;-75
2023/10/31 02:14:16;;;;;;;22.67;9.33;;;;;;;12.72;100.00;98700.25;5142860;56;1140857;-76
2023/10/31 02:19:23;;;;;;;25.23;9.88;;;;;;;12.73;100.00;98689.97;5056691;56;1141082;-76
2023/10/31 02:24:28;;;;;;;16.60;8.65;;;;;;;12.74;100.00;98678.36;5031369;57;1141006;-76
2023/10/31 02:29:34;;;;;;;18.00;8.10;;;;;;;12.77;100.00;98671.38;5030482;57;1141160;-76
2023/10/31 02:34:39;;;;;;;14.20;8.07;;;;;;;12.81;100.00;98664.72;5062313;56;1141088;-75
2023/10/31 02:39:45;;;;;;;15.27;8.93;;;;;;;12.82;100.00;98648.30;5055218;57;1140914;-78
2023/10/31 02:44:51;;;;;;;16.90;8.57;;;;;;;12.82;100.00;98630.56;5055384;56;1141098;-73
2023/10/31 02:49:56;;;;;;;25.00;8.70;;;;;;;12.82;100.00;98617.30;5055435;57;1140918;-72
2023/10/31 02:55:02;;;;;;;18.80;8.80;;;;;;;12.83;100.00;98612.81;5074804;56;1140744;-76
2023/10/31 03:00:08;;;;;;;23.73;8.17;;;;;;;12.83;100.00;98609.62;5079851;56;1141193;-72
2023/10/31 03:05:15;;;;;;;23.50;9.60;;;;;;;12.85;100.00;98605.47;5150033;56;1140903;-77
2023/10/31 03:10:21;;;;;;;23.77;8.83;;;;;;;12.85;100.00;98599.66;5162973;56;1140875;-77
2023/10/31 03:15:27;;;;;;;19.52;8.03;;;;;;;12.87;100.00;98588.38;5142692;56;1140743;-75
2023/10/31 03:20:33;;;;;;;18.47;8.20;;;;;;;12.88;100.00;98579.91;5087666;56;1140979;-70
2023/10/31 03:25:39;;;;;;;16.97;8.10;;;;;;;12.88;100.00;98567.97;5074951;57;1141256;-71
2023/10/31 03:30:44;;;;;;;25.73;8.33;;;;;;;12.89;100.00;98557.19;5054376;56;1141038;-71
2023/10/31 03:35:50;;;;;;;20.70;7.93;;;;;;;12.89;100.00;98547.89;5054733;56;1140985;-76
2023/10/31 03:40:55;;;;;;;16.30;7.43;;;;;;;12.89;100.00;98538.61;5055089;57;1140855;-74
2023/10/31 03:46:01;;;;;;;17.90;7.77;;;;;;;12.91;100.00;98529.97;5075076;57;1140861;-75
2023/10/31 03:51:07;;;;;;;17.90;7.47;;;;;;;12.92;100.00;98522.83;5053229;57;1141205;-73
2023/10/31 03:56:12;;;;;;;18.87;7.15;;;;;;;12.96;100.00;98520.97;5054869;57;1140615;-76
2023/10/31 04:01:18;;;;;;;19.60;7.10;;;;;;;13.01;100.00;98519.07;5032363;57;1141116;-77
2023/10/31 04:06:24;;;;;;;18.90;7.15;;;;;;;13.07;100.00;98518.35;4973411;58;1140653;-76
2023/10/31 04:11:30;;;;;;;19.52;6.35;;;;;;;13.12;100.00;98515.16;5018696;56;1140957;-74
2023/10/31 04:16:45;;;;;;;14.73;6.50;;;;;;;13.15;100.00;98516.94;5061391;56;1140823;-73
2023/10/31 04:21:50;;;;;;;15.67;6.07;;;;;;;13.19;100.00;98512.09;5042049;56;1140946;-75
2023/10/31 04:26:56;;;;;;;13.93;6.23;;;;;;;13.22;100.00;98511.23;5041336;56;1140969;-74
2023/10/31 04:32:02;;;;;;;15.80;5.70;;;;;;;13.24;100.00;98503.91;5041509;57;1140795;-76
2023/10/31 04:37:07;;;;;;;13.27;6.80;;;;;;;13.29;100.00;98499.38;5061404;57;1141053;-75
2023/10/31 04:42:13;;;;;;;17.40;7.90;;;;;;;13.31;100.00;98496.02;5041804;57;1141143;-79
2023/10/31 04:47:19;;;;;;;20.40;6.57;;;;;;;13.33;100.00;98494.82;5042852;56;1140901;-77
2023/10/31 04:52:26;;;;;;;17.95;6.90;;;;;;;13.35;100.00;98486.17;5062650;57;1141027;-77
2023/10/31 04:57:31;;;;;;;30.83;12.30;;;;;;;13.38;100.00;98481.00;5042576;57;1140941;-72
2023/10/31 05:02:37;;;;;;;15.90;7.67;;;;;;;13.42;100.00;98482.78;5108232;56;1143182;-78
2023/10/31 05:07:43;;;;;;;36.87;13.37;;;;;;;13.44;100.00;98480.77;5147085;56;1141203;-76
2023/10/31 05:12:48;;;;;;;15.40;7.33;;;;;;;13.43;100.00;98473.30;5082491;56;1143108;-75
2023/10/31 05:17:54;;;;;;;13.03;6.07;;;;;;;13.43;100.00;98472.48;5064432;56;1141143;-76
2023/10/31 05:23:00;;;;;;;15.90;6.47;;;;;;;13.43;100.00;98469.83;5102084;56;1140986;-74
2023/10/31 05:28:06;;;;;;;11.17;7.17;;;;;;;13.42;100.00;98467.67;5074804;57;1140872;-72
2023/10/31 05:33:11;;;;;;;15.00;6.77;;;;;;;13.46;100.00;98464.94;5055704;57;1140692;-74
2023/10/31 05:38:17;;;;;;;16.63;8.73;;;;;;;13.46;100.00;98466.77;5059664;56;1140802;-76
2023/10/31 05:43:23;;;;;;;24.32;12.63;;;;;;;13.46;100.00;98461.46;5075302;57;1141004;-70
2023/10/31 05:48:29;;;;;;;27.93;13.90;;;;;;;13.47;100.00;98457.80;5055870;57;1142718;-75
2023/10/31 05:53:34;;;;;;;23.10;10.68;;;;;;;13.45;100.00;98451.84;5055668;57;1143098;-76
2023/10/31 05:58:40;;;;;;;23.83;11.30;;;;;;;13.43;100.00;98445.42;5075483;57;1143424;-72
2023/10/31 06:03:46;;;;;;;30.47;21.73;;;;;;;13.44;100.00;98448.40;4973515;58;1143227;-76
2023/10/31 06:08:52;;;;;;;42.70;22.10;;;;;;;13.44;100.00;98444.41;4973027;58;1142895;-73
2023/10/31 06:13:57;;;;;;;19.90;14.58;;;;;;;13.46;100.00;98445.02;5002096;57;1143130;-72
2023/10/31 06:19:03;;;;;;;19.53;11.10;;;;;;;13.49;100.00;98448.64;5082397;56;1142754;-75
2023/10/31 06:24:09;;;;;;;105.33;51.40;;;;;;;13.48;100.00;98451.48;5053589;57;1142878;-71
2023/10/31 06:29:15;;;;;;;33.10;14.83;;;;;;;13.49;100.00;98452.63;5054125;57;1145027;-74
2023/10/31 06:34:21;;;;;;;20.80;8.20;;;;;;;13.47;100.00;98453.31;5074162;57;1143104;-73
2023/10/31 06:39:26;;;;;;;9.58;7.42;;;;;;;13.45;100.00;98454.00;5051946;56;1140875;-72
2023/10/31 06:44:32;;;;;;;17.80;8.77;;;;;;;13.40;100.00;98447.63;5050659;57;1139048;-73
2023/10/31 06:49:38;;;;;;;12.40;6.57;;;;;;;13.36;100.00;98447.17;5071014;57;1141287;-73
2023/10/31 06:54:43;;;;;;;9.30;5.30;;;;;;;13.32;100.00;98451.20;5050766;56;1140963;-73
2023/10/31 06:59:49;;;;;;;9.57;5.73;;;;;;;13.29;100.00;98439.65;5119157;56;1139150;-72
2023/10/31 07:04:55;;;;;;;14.13;6.20;;;;;;;13.26;100.00;98444.00;5120360;56;1138886;-72
2023/10/31 07:10:00;;;;;;;7.50;5.47;;;;;;;13.24;100.00;98439.37;5139094;56;1141085;-73
2023/10/31 07:15:07;;;;;;;11.20;5.63;;;;;;;13.25;100.00;98429.91;5120797;56;1138756;-73
2023/10/31 07:20:12;;;;;;;15.23;7.33;;;;;;;13.23;100.00;98430.59;5081828;56;1140874;-72
2023/10/31 07:25:18;;;;;;;12.13;6.63;;;;;;;13.26;100.00;98437.36;5076910;57;1140693;-75
2023/10/31 07:30:23;;;;;;;12.45;6.67;;;;;;;13.27;100.00;98437.69;5056575;57;1141291;-74
2023/10/31 07:35:29;;;;;;;11.08;5.35;;;;;;;13.26;100.00;98439.52;5108356;56;1140769;-75
2023/10/31 07:40:34;;;;;;;8.55;4.92;;;;;;;13.28;100.00;98436.67;5162139;56;1141016;-72
2023/10/31 07:45:40;;;;;;;7.63;6.13;;;;;;;13.30;100.00;98441.27;5141961;56;1138647;-73
2023/10/31 07:50:46;;;;;;;10.05;6.03;;;;;;;13.32;100.00;98444.05;5142397;56;1139032;-71
2023/10/31 07:55:51;;;;;;;11.90;7.43;;;;;;;13.34;100.00;98453.17;5082618;56;1140924;-75
2023/10/31 08:00:58;;;;;;;8.77;6.17;;;;;;;13.35;100.00;98460.13;5056771;57;1140726;-72
2023/10/31 08:06:05;;;;;;;10.63;7.17;;;;;;;13.36;100.00;98479.85;5057371;57;1138751;-72
2023/10/31 08:11:11;;;;;;;6.40;5.77;;;;;;;13.35;100.00;98480.04;5077581;57;1140821;-74
2023/10/31 08:16:20;;;;;;;7.23;5.87;;;;;;;13.32;100.00;98483.87;5057002;57;1138681;-73
2023/10/31 08:21:28;;;;;;;4.83;4.33;;;;;;;13.29;100.00;98497.52;5061317;56;1138772;-73
2023/10/31 08:26:34;;;;;;;5.10;4.67;;;;;;;13.26;100.00;98489.95;5072957;57;1139054;-75
2023/10/31 08:31:39;;;;;;;5.50;4.67;;;;;;;13.23;100.00;98492.97;5084913;56;1138737;-74
2023/10/31 08:36:45;;;;;;;5.70;4.73;;;;;;;13.22;100.00;98495.30;5107357;56;1139009;-71
2023/10/31 08:41:55;;;;;;;4.63;4.33;;;;;;;13.21;100.00;98500.30;5127668;56;1139124;-72
2023/10/31 08:47:01;;;;;;;4.57;3.50;;;;;;;13.22;100.00;98511.73;5107163;56;1138642;-74
2023/10/31 08:52:07;;;;;;;4.27;3.87;;;;;;;13.19;100.00;98513.42;5055760;56;1138982;-72
2023/10/31 08:57:12;;;;;;;5.27;3.90;;;;;;;13.16;100.00;98515.94;5073750;57;1138837;-75
2023/10/31 09:02:18;;;;;;;5.77;3.90;;;;;;;13.12;100.00;98525.77;5053576;57;1139302;-74
2023/10/31 09:07:23;;;;;;;4.70;4.20;;;;;;;13.09;100.00;98528.28;5054070;57;1138742;-74
2023/10/31 09:12:29;;;;;;;5.83;4.70;;;;;;;13.04;100.00;98539.44;5072777;57;1138693;-73
2023/10/31 09:17:35;;;;;;;4.37;3.97;;;;;;;13.01;100.00;98548.27;5069432;56;1139519;-74
2023/10/31 09:22:40;;;;;;;8.07;4.27;;;;;;;12.98;100.00;98542.02;5105524;56;1138823;-77
2023/10/31 09:27:46;;;;;;;5.37;4.20;;;;;;;12.97;100.00;98548.33;5073672;56;1138919;-76
2023/10/31 09:32:52;;;;;;;4.63;4.07;;;;;;;12.95;100.00;98548.51;5053822;57;1138866;-72
2023/10/31 09:37:57;;;;;;;5.77;4.80;;;;;;;12.92;100.00;98563.45;5053654;57;1139072;-76
2023/10/31 09:43:03;;;;;;;6.15;3.83;;;;;;;12.90;100.00;98570.77;5053656;57;1139007;-73
2023/10/31 09:48:09;;;;;;;4.30;3.90;;;;;;;12.88;100.00;98578.08;5151727;56;1138857;-78
2023/10/31 09:53:17;;;;;;;3.50;3.20;;;;;;;12.92;100.00;98578.55;5104710;56;1138853;-77
2023/10/31 09:58:22;;;;;;;4.70;3.30;;;;;;;12.94;100.00;98583.18;5053744;56;1138653;-74
2023/10/31 10:03:29;;;;;;;3.60;3.30;;;;;;;12.94;100.00;98601.75;5097411;56;1139037;-75
2023/10/31 10:08:38;;;;;;;4.20;2.72;;;;;;;12.94;100.00;98621.66;5137130;56;1138691;-73
2023/10/31 10:13:44;;;;;;;2.97;2.77;;;;;;;12.93;100.00;98627.46;5136859;56;1138792;-76
2023/10/31 10:18:51;;;;;;;3.00;2.80;;;;;;;12.93;100.00;98638.58;5089241;56;1138906;-76
2023/10/31 10:23:58;;;;;;;2.10;2.00;;;;;;;12.93;100.00;98664.61;5066124;56;1138795;-74
2023/10/31 10:29:03;;;;;;;3.17;2.97;;;;;;;12.94;100.00;98645.53;5036316;57;1139145;-77
2023/10/31 10:34:12;;;;;;;3.07;2.87;;;;;;;12.98;100.00;98648.98;5055701;57;1138827;-75
2023/10/31 10:39:23;;;;;;;2.57;2.30;;;;;;;12.99;100.00;98655.91;5047745;56;1138968;-76
2023/10/31 10:44:35;;;;;;;6.08;5.00;;;;;;;12.96;100.00;98658.13;5084506;56;1138615;-74
2023/10/31 10:49:43;;;;;;;3.22;2.25;;;;;;;12.95;100.00;98660.45;5128571;56;1139065;-76
2023/10/31 10:55:12;;;;;;;7.40;3.03;;;;;;;12.94;100.00;98658.30;5073261;56;1138788;-72
2023/10/31 11:00:19;;;;;;;4.37;3.97;;;;;;;12.88;100.00;98668.29;5063127;56;1138901;-77
2023/10/31 11:05:26;;;;;;;4.87;4.45;;;;;;;12.88;100.00;98668.29;5068659;56;1139178;-76
2023/10/31 11:10:32;;;;;;;5.15;2.72;;;;;;;12.91;100.00;98699.78;5093404;56;1139402;-77
2023/10/31 11:15:39;;;;;;;3.08;2.62;;;;;;;12.84;100.00;98695.34;5057027;56;1138880;-72
2023/10/31 11:20:45;;;;;;;8.40;4.40;;;;;;;12.79;100.00;98705.19;5090656;56;1139336;-76
2023/10/31 11:25:54;;;;;;;6.03;5.12;;;;;;;12.75;100.00;98711.84;5143401;56;1138919;-78
2023/10/31 11:31:02;;;;;;;11.33;3.90;;;;;;;12.77;100.00;98718.30;5126560;56;1138841;-76
2023/10/31 11:36:08;;;;;;;6.55;3.15;;;;;;;12.77;100.00;98738.20;5125622;56;1140989;-75
2023/10/31 11:41:13;;;;;;;3.27;1.97;;;;;;;12.77;100.00;98734.22;5061020;57;1138727;-74
2023/10/31 11:46:22;;;;;;;4.07;1.50;;;;;;;12.73;100.00;98743.02;5041716;57;1138771;-77
2023/10/31 11:51:28;;;;;;;4.63;2.60;;;;;;;12.71;100.00;98736.23;5032500;57;1139081;-77
2023/10/31 11:56:34;;;;;;;1.60;1.50;;;;;;;12.69;100.00;98732.43;5061666;57;1138964;-78
2023/10/31 12:01:49;;;;;;;18.30;8.73;;;;;;;12.69;100.00;98740.39;5041081;57;1139043;-67
2023/10/31 12:07:01;;;;;;;7.60;2.50;;;;;;;12.69;100.00;98737.73;5040428;57;1140888;-70
2023/10/31 12:12:07;;;;;;;0.60;0.60;;;;;;;12.68;100.00;98740.89;5042558;57;1139080;-70
2023/10/31 12:17:13;;;;;;;3.83;0.80;;;;;;;12.58;100.00;98742.13;5061815;56;1139173;-67
2023/10/31 12:22:21;;;;;;;4.53;1.53;;;;;;;12.45;100.00;98764.41;5124661;56;1138852;-68
2023/10/31 12:27:26;;;;;;;2.83;1.60;;;;;;;12.37;100.00;98779.88;5126341;56;1139034;-68
2023/10/31 12:32:31;;;;;;;2.77;1.20;;;;;;;12.38;100.00;98804.03;5145846;56;1138831;-69
2023/10/31 12:37:37;;;;;;;4.43;1.87;;;;;;;12.26;100.00;98805.41;5125833;56;1138945;-69
2023/10/31 12:42:45;;;;;;;1.83;0.90;;;;;;;12.10;100.00;98832.79;5126104;56;1138958;-68
2023/10/31 12:48:08;;;;;;;4.23;1.03;;;;;;;11.98;100.00;98827.03;5145840;56;1138879;-68
2023/10/31 12:53:19;;;;;;;1.32;0.80;;;;;;;11.87;100.00;98849.08;5126323;56;1138867;-71
2023/10/31 12:58:25;;;;;;;0.98;0.98;;;;;;;11.75;100.00;98860.50;5129396;56;1138925;-72
2023/10/31 13:03:31;;;;;;;0.60;0.60;;;;;;;11.70;100.00;98861.48;5059869;57;1138940;-69
2023/10/31 13:08:36;;;;;;;0.70;0.70;;;;;;;11.72;100.00;98877.20;5101894;56;1138818;-71
2023/10/31 13:13:42;;;;;;;3.50;0.85;;;;;;;11.79;100.00;98889.64;5028747;57;1139029;-70
2023/10/31 13:18:49;;;;;;;0.77;0.50;;;;;;;11.86;100.00;98903.05;5146460;56;1138786;-70
2023/10/31 13:23:54;;;;;;;4.53;1.25;;;;;;;11.99;100.00;98894.09;5126804;56;1138697;-70
2023/10/31 13:29:00;;;;;;;2.30;0.80;;;;;;;12.02;100.00;98894.27;5134605;56;1139131;-72
2023/10/31 13:34:06;;;;;;;1.30;0.87;;;;;;;12.00;100.00;98907.67;5131966;56;1138781;-75
2023/10/31 13:39:12;;;;;;;8.10;2.17;;;;;;;11.96;100.00;98916.45;5052279;57;1138725;-76
2023/10/31 13:44:17;;;;;;;3.17;1.27;;;;;;;11.99;100.00;98915.30;5053336;57;1138668;-74
2023/10/31 13:49:24;;;;;;;4.50;1.47;;;;;;;12.00;100.00;98923.58;5073182;57;1138753;-76
2023/10/31 13:54:29;;;;;;;1.03;0.80;;;;;;;12.03;100.00;98927.22;5053086;57;1138767;-74
2023/10/31 13:59:35;;;;;;;1.23;0.87;;;;;;;12.03;100.00;98937.82;5053274;57;1139045;-74
2023/10/31 14:04:40;;;;;;;2.98;0.80;;;;;;;12.04;100.00;98918.28;5073477;57;1138936;-73
2023/10/31 14:09:47;;;;;;;5.43;0.70;;;;;;;12.14;100.00;98922.89;5004417;56;1138771;-74
2023/10/31 14:14:53;;;;;;;1.97;1.10;;;;;;;12.22;100.00;98920.74;5055627;57;1138600;-74
2023/10/31 14:19:59;;;;;;;3.53;1.00;;;;;;;12.27;100.00;98930.33;5098581;56;1139247;-73
2023/10/31 14:25:07;;;;;;;0.90;0.70;;;;;;;12.26;100.00;98932.64;5074582;57;1138787;-73
2023/10/31 14:30:13;;;;;;;0.43;0.43;;;;;;;12.23;100.00;98934.30;5088735;56;1138827;-75
2023/10/31 14:35:19;;;;;;;0.77;0.70;;;;;;;12.19;100.00;98939.13;5142632;56;1138706;-74
2023/10/31 14:40:24;;;;;;;2.33;0.80;;;;;;;12.16;100.00;98954.53;5163139;56;1138746;-72
2023/10/31 14:45:30;;;;;;;0.60;0.60;;;;;;;12.12;100.00;98947.41;5142374;56;1139065;-73
2023/10/31 14:50:36;;;;;;;1.83;0.80;;;;;;;12.14;100.00;98944.59;5142933;56;1138842;-75
2023/10/31 14:55:42;;;;;;;2.12;1.52;;;;;;;12.14;100.00;98941.94;5105573;56;1139151;-71
2023/10/31 15:00:47;;;;;;;2.62;1.10;;;;;;;12.15;100.00;98933.00;5055823;56;1138654;-75
2023/10/31 15:05:53;;;;;;;3.07;1.30;;;;;;;12.16;100.00;98933.33;5057947;56;1138898;-75
2023/10/31 15:10:58;;;;;;;3.10;1.83;;;;;;;12.14;100.00;98948.56;5139905;56;1138577;-73
2023/10/31 15:16:04;;;;;;;1.30;1.20;;;;;;;12.11;100.00;98944.42;5159396;56;1138808;-75
2023/10/31 15:21:10;;;;;;;1.83;1.47;;;;;;;12.12;100.00;98945.25;5132168;56;1138914;-75
2023/10/31 15:26:16;;;;;;;1.70;1.60;;;;;;;12.12;100.00;98942.60;5139609;56;1138701;-74
2023/10/31 15:31:21;;;;;;;1.37;1.23;;;;;;;12.12;100.00;98947.41;5157288;56;1139027;-75
2023/10/31 15:36:27;;;;;;;1.10;1.00;;;;;;;12.14;100.00;98956.02;5078841;56;1138786;-72
2023/10/31 15:41:33;;;;;;;9.48;5.50;;;;;;;12.09;100.00;98951.71;5068896;56;1138970;-73
2023/10/31 15:46:38;;;;;;;1.17;1.05;;;;;;;12.17;100.00;98972.09;5145749;56;1139200;-76
2023/10/31 15:51:44;;;;;;;4.65;1.70;;;;;;;12.17;100.00;98978.22;5124664;56;1138588;-74
2023/10/31 15:56:49;;;;;;;2.83;2.50;;;;;;;12.16;100.00;98991.14;5115006;56;1138677;-72
2023/10/31 16:01:55;;;;;;;10.40;7.80;;;;;;;12.15;100.00;98993.95;4961608;58;1138904;-73
2023/10/31 16:07:01;;;;;;;2.20;1.97;;;;;;;12.15;100.00;99007.20;5105574;56;1141004;-74
2023/10/31 16:12:08;;;;;;;3.02;2.70;;;;;;;12.14;100.00;99020.95;4922986;58;1138926;-73
2023/10/31 16:17:14;;;;;;;1.60;1.50;;;;;;;12.12;100.00;99024.27;5052700;56;1138986;-75
2023/10/31 16:22:20;;;;;;;1.90;1.80;;;;;;;12.09;100.00;99037.01;5075582;56;1138810;-72
2023/10/31 16:27:25;;;;;;;5.13;3.60;;;;;;;12.07;100.00;99035.84;5074786;56;1139008;-76
2023/10/31 16:32:31;;;;;;;3.27;2.20;;;;;;;12.07;100.00;99039.02;5084601;56;1138960;-74
2023/10/31 16:37:37;;;;;;;3.92;2.62;;;;;;;12.06;100.00;99040.84;5062457;56;1139000;-71
2023/10/31 16:42:42;;;;;;;6.97;2.55;;;;;;;12.03;100.00;99045.14;5043466;56;1138947;-71
2023/10/31 16:47:48;;;;;;;3.47;2.87;;;;;;;11.98;100.00;99052.73;5041558;56;1139041;-73
2023/10/31 16:52:54;;;;;;;3.00;1.83;;;;;;;11.94;100.00;99063.32;5062587;56;1138694;-73
2023/10/31 16:58:01;;;;;;;8.80;4.37;;;;;;;11.91;100.00;99072.95;5092672;56;1139036;-75
2023/10/31 17:03:11;;;;;;;100.65;32.15;;;;;;;11.86;100.00;99081.87;5043194;56;1138947;-70
2023/10/31 17:08:15;;;;;;;18.20;4.67;;;;;;;11.82;100.00;99073.91;5095919;56;1145112;-72
2023/10/31 17:13:21;;;;;;;2.93;1.43;;;;;;;11.81;100.00;99074.89;4958769;57;1140835;-72
2023/10/31 17:18:27;;;;;;;27.73;7.93;;;;;;;11.80;100.00;99071.91;5127182;56;1138696;-72
2023/10/31 17:23:32;;;;;;;18.87;5.33;;;;;;;11.78;100.00;99072.56;5140816;56;1141280;-73
2023/10/31 17:28:38;;;;;;;22.00;5.05;;;;;;;11.70;100.00;99060.60;5023241;57;1141034;-74
2023/10/31 17:33:44;;;;;;;18.05;3.85;;;;;;;11.70;100.00;99060.60;5104742;56;1140893;-74
2023/10/31 17:38:49;;;;;;;15.87;4.17;;;;;;;11.73;100.00;99082.30;5062060;57;1140969;-75
2023/10/31 17:43:55;;;;;;;15.07;5.43;;;;;;;11.73;100.00;99100.02;5041607;57;1140893;-75
2023/10/31 17:49:00;;;;;;;5.03;1.90;;;;;;;11.72;100.00;99099.19;5041608;57;1141112;-73
2023/10/31 17:54:06;;;;;;;6.43;2.80;;;;;;;11.71;100.00;99118.71;5103201;56;1138731;-74
2023/10/31 17:59:12;;;;;;;2.17;1.00;;;;;;;11.67;100.00;99142.52;5053810;56;1138651;-70
2023/10/31 18:04:17;;;;;;;9.17;2.60;;;;;;;11.64;100.00;99155.58;5042805;56;1138883;-74
2023/10/31 18:09:23;;;;;;;2.20;1.00;;;;;;;11.62;100.00;99165.50;5062893;56;1138842;-73
2023/10/31 18:14:28;;;;;;;1.13;0.80;;;;;;;11.59;100.00;99179.08;5059821;56;1138544;-73
2023/10/31 18:19:34;;;;;;;0.97;0.80;;;;;;;11.54;100.00;99174.75;5085410;56;1138922;-73
2023/10/31 18:24:39;;;;;;;0.50;0.50;;;;;;;11.52;100.00;99178.53;5146715;56;1138716;-73
2023/10/31 18:29:45;;;;;;;2.95;0.70;;;;;;;11.47;100.00;99180.32;5114974;56;1138992;-71
2023/10/31 18:34:51;;;;;;;1.47;0.70;;;;;;;11.44;100.00;99189.09;5097521;55;1138622;-72
2023/10/31 18:39:57;;;;;;;0.80;0.80;;;;;;;11.41;100.00;99196.85;5094550;56;1138877;-72
2023/10/31 18:45:02;;;;;;;1.37;0.90;;;;;;;11.38;100.00;99210.39;5072284;56;1138700;-72
2023/10/31 18:50:08;;;;;;;2.23;1.00;;;;;;;11.35;100.00;99229.72;5095080;56;1138688;-73
2023/10/31 18:55:14;;;;;;;1.10;1.00;;;;;;;11.32;100.00;99250.70;5115589;56;1138937;-72
2023/10/31 19:00:20;;;;;;;2.40;1.10;;;;;;;11.28;100.00;99267.91;5157755;56;1138787;-70
2023/10/31 19:05:26;;;;;;;6.13;1.40;;;;;;;11.25;100.00;99278.30;5128684;56;1138869;-74
2023/10/31 19:10:32;;;;;;;0.68;0.68;;;;;;;11.23;100.00;99283.41;5112211;56;1138874;-73
2023/10/31 19:15:38;;;;;;;1.42;0.85;;;;;;;11.07;100.00;99288.07;5082519;55;1138845;-71
2023/10/31 19:20:43;;;;;;;2.65;0.90;;;;;;;10.90;100.00;99293.70;5101569;56;1138736;-72
2023/10/31 19:25:49;;;;;;;0.85;0.82;;;;;;;10.79;100.00;99295.25;5073024;56;1138867;-72
2023/10/31 19:30:55;;;;;;;2.97;0.80;;;;;;;10.72;100.00;99295.98;5116655;56;1138924;-72
2023/10/31 19:36:00;;;;;;;5.87;0.80;;;;;;;10.64;100.00;99298.07;5122540;56;1138950;-72
2023/10/31 19:41:07;;;;;;;5.77;0.67;;;;;;;10.58;100.00;99302.63;5105265;56;1138861;-72
2023/10/31 19:46:13;;;;;;;1.40;0.70;;;;;;;10.49;100.00;99316.25;5144892;56;1138749;-71
2023/10/31 19:51:19;;;;;;;1.17;0.93;;;;;;;10.46;100.00;99323.15;5077417;56;1138918;-75
2023/10/31 19:56:25;;;;;;;1.53;0.63;;;;;;;10.43;100.00;99339.30;5137851;56;1138869;-73
2023/10/31 20:01:31;;;;;;;2.73;0.70;;;;;;;10.40;100.00;99336.11;5158291;56;1138751;-73
2023/10/31 20:06:38;;;;;;;0.80;0.80;;;;;;;10.39;100.00;99346.37;5104140;56;1138734;-76
2023/10/31 20:11:43;;;;;;;1.65;0.70;;;;;;;10.34;100.00;99342.83;5112150;56;1138748;-74
2023/10/31 20:16:49;;;;;;;1.07;0.53;;;;;;;10.30;100.00;99365.23;5125556;56;1138810;-73
2023/10/31 20:21:55;;;;;;;1.03;0.70;;;;;;;10.23;100.00;99375.53;5129173;56;1138995;-74
2023/10/31 20:27:00;;;;;;;0.50;0.50;;;;;;;10.22;100.00;99382.31;5132380;56;1138680;-73
2023/10/31 20:32:07;;;;;;;6.13;0.83;;;;;;;10.23;100.00;99389.75;5075997;56;1138859;-75
2023/10/31 20:37:12;;;;;;;0.83;0.70;;;;;;;10.24;100.00;99389.58;5072433;56;1138973;-76
2023/10/31 20:42:18;;;;;;;2.37;0.83;;;;;;;10.25;100.00;99392.57;5092588;56;1138941;-76
2023/10/31 20:47:24;;;;;;;1.33;1.00;;;;;;;10.26;100.00;99408.77;5134305;56;1138653;-72
2023/10/31 20:52:29;;;;;;;1.00;0.90;;;;;;;10.23;100.00;99406.45;5084514;56;1138891;-74
2023/10/31 20:57:35;;;;;;;1.10;1.10;;;;;;;10.20;100.00;99422.58;5101069;56;1139312;-75
2023/10/31 21:02:40;;;;;;;1.37;1.20;;;;;;;10.18;100.00;99428.45;5127672;56;1141409;-74
2023/10/31 21:07:46;;;;;;;2.83;1.35;;;;;;;10.14;100.00;99433.19;5151343;56;1138909;-74
2023/10/31 21:12:52;;;;;;;1.55;1.42;;;;;;;10.10;100.00;99439.72;5110579;56;1138819;-78
2023/10/31 21:17:57;;;;;;;1.43;1.00;;;;;;;10.11;100.00;99445.84;5134247;56;1138773;-75
2023/10/31 21:23:03;;;;;;;1.77;1.15;;;;;;;10.11;100.00;99448.48;5053038;56;1138945;-81
2023/10/31 21:28:09;;;;;;;1.37;1.03;;;;;;;10.07;100.00;99445.31;5072967;56;1138996;-73
2023/10/31 21:33:14;;;;;;;1.27;0.70;;;;;;;10.04;100.00;99446.91;5082462;56;1138855;-77
2023/10/31 21:38:20;;;;;;;4.00;0.70;;;;;;;9.99;100.00;99435.09;5062069;56;1138767;-71
2023/10/31 21:43:25;;;;;;;1.40;1.30;;;;;;;9.90;100.00;99438.59;5078141;56;1136900;-78
2023/10/31 21:48:31;;;;;;;1.60;1.10;;;;;;;9.84;100.00;99448.73;5054067;56;1136619;-82
2023/10/31 21:53:39;;;;;;;0.70;0.70;;;;;;;9.85;100.00;99446.94;5042873;56;1136999;-75
2023/10/31 21:58:45;;;;;;;5.33;0.90;;;;;;;9.84;100.00;99455.83;5074061;56;1136799;-73
2023/10/31 22:03:51;;;;;;;2.60;0.60;;;;;;;9.84;100.00;99470.34;4934190;58;1137007;-79
2023/10/31 22:08:57;;;;;;;0.70;0.70;;;;;;;9.83;100.00;99484.04;5043562;56;1136952;-75
2023/10/31 22:14:03;;;;;;;1.75;0.78;;;;;;;9.79;100.00;99489.73;5057334;56;1136942;-76
2023/10/31 22:19:08;;;;;;;5.62;1.10;;;;;;;9.72;100.00;99494.75;5138898;56;1136940;-79
2023/10/31 22:24:14;;;;;;;2.73;1.10;;;;;;;9.70;100.00;99495.86;5126947;56;1136909;-78
2023/10/31 22:29:20;;;;;;;3.27;0.87;;;;;;;9.72;100.00;99497.39;5125943;56;1136691;-80
2023/10/31 22:34:25;;;;;;;1.50;1.40;;;;;;;9.74;100.00;99507.81;5145853;56;1136472;-76
2023/10/31 22:39:31;;;;;;;1.97;1.33;;;;;;;9.70;100.00;99501.13;5127036;56;1137016;-78
2023/10/31 22:44:37;;;;;;;1.33;1.13;;;;;;;9.71;100.00;99506.28;5126876;56;1136531;-73
2023/10/31 22:49:42;;;;;;;0.95;0.90;;;;;;;9.69;100.00;99514.82;5147037;56;1137036;-75
2023/10/31 22:54:48;;;;;;;1.05;0.95;;;;;;;9.68;100.00;99511.00;5057593;56;1136513;-78
2023/10/31 22:59:54;;;;;;;2.23;1.10;;;;;;;9.66;100.00;99507.17;5042778;56;1136803;-78
2023/10/31 23:05:05;;;;;;;0.80;0.80;;;;;;;9.66;100.00;99506.34;5060750;56;1136868;-74